Taisei Maru No.37 — JJ3822 — position and weather

sailwx.info

Track history (hours):
 
Tides and Currents Weather Stations Pressure Air Temp Water Temp Dewpoint Dewpoint Depression Visibility Wind Speed Wind Dir Waves Ship Positions

Taisei Maru No.37

Last reported at 2017-Nov-24 14:30 UTC. Time now 2017-Nov-24 14:51 UTC.
Position N 35°35' E 139°51'.

Length 73 m; draft 5 m.

Type: Cargo ship. MMSI: 431300239.

Date/timePositionNaut miles runAvg speedWind from/ knotsBaromVisibWave heightAir tempDewpointWater temp
2017-Nov-24 14:30N 35°35' E 139°51'2 4.4
2017-Nov-24 14:01N 35°32' E 139°52'510.1
2017-Nov-24 13:31N 35°28' E 139°50'510.6
2017-Nov-24 13:01N 35°24' E 139°46'510.2
2017-Nov-24 12:30N 35°19' E 139°44'5 9.8
2017-Nov-24 12:00N 35°14' E 139°47'510.3
2017-Nov-24 11:30N 35°09' E 139°46'510.6
2017-Nov-24 11:00N 35°05' E 139°43'611.3
2017-Nov-24 10:30N 35°01' E 139°38'611.8
2017-Nov-24 10:00N 34°57' E 139°32'  
2017-Nov-17 10:10N 34°58' E 139°24'211.2
2017-Nov-17 09:58N 34°60' E 139°27'511.3
2017-Nov-17 09:30N 35°02' E 139°32'611.8
2017-Nov-17 09:00N 35°06' E 139°38'611.1
2017-Nov-17 08:30N 35°09' E 139°43'611.7
2017-Nov-17 08:00N 35°14' E 139°46'611.9
2017-Nov-17 07:30N 35°20' E 139°42'611.6
2017-Nov-17 07:01N 35°25' E 139°43'5 9.1
2017-Nov-17 06:30N 35°30' E 139°43'0 0.4
2017-Nov-17 06:01N 35°30' E 139°43'0 0.0
2017-Nov-17 05:30N 35°30' E 139°43'0 0.0
2017-Nov-17 05:00N 35°30' E 139°43'0 0.0
2017-Nov-17 04:31N 35°30' E 139°43'2 3.6
2017-Nov-17 04:01N 35°30' E 139°45'4 8.3
2017-Nov-17 03:30N 35°30' E 139°50'0 0.1
2017-Nov-17 02:57N 35°30' E 139°50'3 6.6
2017-Nov-17 02:30N 35°33' E 139°49'3 0.4
2017-Nov-16 20:28N 35°35' E 139°47'4 5.4
2017-Nov-16 19:44N 35°35' E 139°51'0 0.0
2017-Nov-16 19:30N 35°35' E 139°51'0 0.0
2017-Nov-16 12:33N 35°35' E 139°51'0 0.1
2017-Nov-16 12:30N 35°35' E 139°51'0 0.0
2017-Nov-16 11:51N 35°35' E 139°51'0 0.0
2017-Nov-16 11:30N 35°35' E 139°51'0 0.1
2017-Nov-16 10:53N 35°35' E 139°51'4 6.7
2017-Nov-16 10:16N 35°31' E 139°52'3 9.7
2017-Nov-16 10:00N 35°29' E 139°51'510.2
2017-Nov-16 09:30N 35°25' E 139°47'5 9.9
2017-Nov-16 09:01N 35°20' E 139°44'4 8.9
2017-Nov-16 08:30N 35°16' E 139°46'5 9.7
2017-Nov-16 08:00N 35°11' E 139°47'510.6
2017-Nov-16 07:30N 35°07' E 139°43'611.3
2017-Nov-16 07:00N 35°03' E 139°38'611.1
2017-Nov-16 06:29N 34°59' E 139°33'  
Track history (hours):
 
Tides and Currents Weather Stations Pressure Air Temp Water Temp Dewpoint Dewpoint Depression Visibility Wind Speed Wind Dir Waves Ship Positions

Taisei Maru No.37

Last reported at 2017-Nov-24 14:30 UTC. Time now 2017-Nov-24 14:51 UTC.
Position N 35°35' E 139°51'.

Length 73 m; draft 5 m.

Type: Cargo ship. MMSI: 431300239.

Date/timePositionNaut miles runAvg speedWind from/ knotsBaromVisibWave heightAir tempDewpointWater temp
2017-Nov-24 14:30N 35°35' E 139°51'2 4.4
2017-Nov-24 14:01N 35°32' E 139°52'510.1
2017-Nov-24 13:31N 35°28' E 139°50'510.6
2017-Nov-24 13:01N 35°24' E 139°46'510.2
2017-Nov-24 12:30N 35°19' E 139°44'5 9.8
2017-Nov-24 12:00N 35°14' E 139°47'510.3
2017-Nov-24 11:30N 35°09' E 139°46'510.6
2017-Nov-24 11:00N 35°05' E 139°43'611.3
2017-Nov-24 10:30N 35°01' E 139°38'611.8
2017-Nov-24 10:00N 34°57' E 139°32'  
2017-Nov-17 10:10N 34°58' E 139°24'211.2
2017-Nov-17 09:58N 34°60' E 139°27'511.3
2017-Nov-17 09:30N 35°02' E 139°32'611.8
2017-Nov-17 09:00N 35°06' E 139°38'611.1
2017-Nov-17 08:30N 35°09' E 139°43'611.7
2017-Nov-17 08:00N 35°14' E 139°46'611.9
2017-Nov-17 07:30N 35°20' E 139°42'611.6
2017-Nov-17 07:01N 35°25' E 139°43'5 9.1
2017-Nov-17 06:30N 35°30' E 139°43'0 0.4
2017-Nov-17 06:01N 35°30' E 139°43'0 0.0
2017-Nov-17 05:30N 35°30' E 139°43'0 0.0
2017-Nov-17 05:00N 35°30' E 139°43'0 0.0
2017-Nov-17 04:31N 35°30' E 139°43'2 3.6
2017-Nov-17 04:01N 35°30' E 139°45'4 8.3
2017-Nov-17 03:30N 35°30' E 139°50'0 0.1
2017-Nov-17 02:57N 35°30' E 139°50'3 6.6
2017-Nov-17 02:30N 35°33' E 139°49'3 0.4
2017-Nov-16 20:28N 35°35' E 139°47'4 5.4
2017-Nov-16 19:44N 35°35' E 139°51'0 0.0
2017-Nov-16 19:30N 35°35' E 139°51'0 0.0
2017-Nov-16 12:33N 35°35' E 139°51'0 0.1
2017-Nov-16 12:30N 35°35' E 139°51'0 0.0
2017-Nov-16 11:51N 35°35' E 139°51'0 0.0
2017-Nov-16 11:30N 35°35' E 139°51'0 0.1
2017-Nov-16 10:53N 35°35' E 139°51'4 6.7
2017-Nov-16 10:16N 35°31' E 139°52'3 9.7
2017-Nov-16 10:00N 35°29' E 139°51'510.2
2017-Nov-16 09:30N 35°25' E 139°47'5 9.9
2017-Nov-16 09:01N 35°20' E 139°44'4 8.9
2017-Nov-16 08:30N 35°16' E 139°46'5 9.7
2017-Nov-16 08:00N 35°11' E 139°47'510.6
2017-Nov-16 07:30N 35°07' E 139°43'611.3
2017-Nov-16 07:00N 35°03' E 139°38'611.1
2017-Nov-16 06:29N 34°59' E 139°33'  

Dump ship's entire track history